Main page
METAR-TAF:

METAR-TAF

Airports :

Curaçao International Airport

Curaçao, Netherlands Antilles

latitude: 12-12N, longitude: 068-58W, elevation: 9 m

Current weather observation

The report was made 30 minutes ago, at 11:00 UTC
Wind 8 kt from the East/Southeast
Temperature 26°C
Humidity 89%
Pressure 1013 hPa
Visibility 10 km or more
Scattered clouds at a height of 1800 ft

METAR: TNCC 151100Z AUTO 12008KT 9999 SCT018 26/24 Q1013 NOSIG

Time: 07:30 (11:30 UTC)

Forecast

The report was made 8 hours and 30 minutes ago, at 03:00 UTC
Forecast valid from 15 at 06 UTC to 16 at 06 UTC
Wind 9 kt from the East
Visibility 10 km or more
Few clouds at a height of 2000 ft
Temporary
from 15 at 06 UTC to 15 at 20 UTC
Broken clouds at a height of 1500 ft
Probability 30% :
Temporary
from 15 at 08 UTC to 15 at 14 UTC
Visibility: 5000 m
Scattered clouds at a height of 1200 ft, Cumulonimbus.

TAF: TNCC 150300Z 1506/1606 10009KT 9999 FEW020 TEMPO 1506/1520 BKN015 PROB30 TEMPO 1508/1514 5000 SHRA/TSRA SCT012CB

Weather observations and forecasts of more than 4000 airports (METAR and TAF reports).

The available stations are represented by yellow and red dots on the map.

Hover mouse over dot to see the name of the station.

Then click to see weather observations and forecasts.

To change the map : click on the green buttons with a black cross to zoom in, on the green button with a dash to zoom out, or on the green arrows for adjacent maps.


METAR-TAF: